Time;durP1;ratioP1;P1;durP2;ratioP2;P2;SDS_P1;SDS_P2;PMS_P1;PMS_P2;Temp;Humidity;BMP_temperature;BMP_pressure;BME280_temperature;BME280_humidity;BME280_pressure;Samples;Min_cycle;Max_cycle;Signal;HPM_P1;HPM_P2
2022/07/13 00:00:49;;;;;;;2.67;2.40;;;;;204.60;224519.00;;;;5061718;28;20423;-67
2022/07/13 00:03:37;;;;;;;2.60;2.40;;;;;204.60;224519.00;;;;5066838;28;20722;-66
2022/07/13 00:06:23;;;;;;;3.53;2.30;;;;;204.60;224519.00;;;;5062334;28;20271;-67
2022/07/13 00:09:09;;;;;;;3.43;2.80;;;;;204.60;224519.00;;;;5065868;28;20329;-64
2022/07/13 00:11:56;;;;;;;3.57;2.70;;;;;204.60;224519.00;;;;5065063;28;20303;-65
2022/07/13 00:14:42;;;;;;;2.80;2.60;;;;;204.60;224519.00;;;;5063803;28;20275;-66
2022/07/13 00:17:28;;;;;;;2.90;2.53;;;;;204.60;224519.00;;;;5062643;28;20308;-67
2022/07/13 00:20:16;;;;;;;2.50;2.30;;;;;204.60;224519.00;;;;5065872;28;20295;-68
2022/07/13 00:23:03;;;;;;;3.73;2.93;;;;;204.60;224519.00;;;;5064982;28;20234;-66
2022/07/13 00:25:49;;;;;;;2.83;2.53;;;;;204.60;224519.00;;;;5054485;28;20224;-67
2022/07/13 00:28:36;;;;;;;2.63;2.43;;;;;204.60;224519.00;;;;5056487;28;20218;-67
2022/07/13 00:31:22;;;;;;;2.63;2.43;;;;;204.60;224519.00;;;;5054335;28;20702;-64
2022/07/13 00:34:09;;;;;;;2.87;2.57;;;;;204.60;224519.00;;;;5067059;28;20228;-67
2022/07/13 00:36:57;;;;;;;3.00;2.70;;;;;204.60;224519.00;;;;5062857;28;20601;-66
2022/07/13 00:39:43;;;;;;;2.80;2.60;;;;;204.60;224519.00;;;;5065137;28;20723;-66
2022/07/13 00:42:29;;;;;;;3.10;2.80;;;;;204.60;224519.00;;;;5063429;28;20229;-66
2022/07/13 00:45:16;;;;;;;2.73;2.53;;;;;204.60;224519.00;;;;5066742;28;20232;-66
2022/07/13 00:48:02;;;;;;;2.70;2.40;;;;;204.60;224519.00;;;;5065449;28;20634;-67
2022/07/13 00:50:50;;;;;;;3.10;2.80;;;;;204.60;224519.00;;;;5061914;28;20252;-64
2022/07/13 00:53:39;;;;;;;3.57;2.90;;;;;204.60;224519.00;;;;5054397;28;20279;-66
2022/07/13 00:56:27;;;;;;;3.07;2.80;;;;;204.60;224519.00;;;;5061501;28;20316;-65
2022/07/13 00:59:14;;;;;;;4.40;3.03;;;;;204.60;224519.00;;;;5061792;28;20325;-63
2022/07/13 01:02:00;;;;;;;4.37;3.00;;;;;204.60;224519.00;;;;5066411;28;20235;-67
2022/07/13 01:04:46;;;;;;;5.33;3.23;;;;;204.60;224519.00;;;;5063425;28;20248;-67
2022/07/13 01:07:34;;;;;;;3.50;3.20;;;;;204.60;224519.00;;;;5053179;28;20588;-66
2022/07/13 01:10:22;;;;;;;4.00;3.60;;;;;204.60;224519.00;;;;5058441;28;20712;-65
2022/07/13 01:13:10;;;;;;;3.80;3.50;;;;;204.60;224519.00;;;;5057744;28;20743;-66
2022/07/13 01:15:57;;;;;;;5.80;3.83;;;;;204.60;224519.00;;;;5061360;28;20232;-66
2022/07/13 01:18:43;;;;;;;5.43;4.00;;;;;204.60;224519.00;;;;5054951;28;20263;-67
2022/07/13 01:21:30;;;;;;;4.80;3.60;;;;;204.60;224519.00;;;;5061080;28;20253;-65
2022/07/13 01:24:18;;;;;;;4.50;4.07;;;;;204.60;224519.00;;;;5063973;28;20234;-66
2022/07/13 01:27:04;;;;;;;4.57;3.63;;;;;204.60;224519.00;;;;5063656;28;20351;-66
2022/07/13 01:29:52;;;;;;;6.83;3.80;;;;;204.60;224519.00;;;;5058458;28;20298;-66
2022/07/13 01:32:46;;;;;;;5.63;4.43;;;;;204.60;224519.00;;;;5063026;28;20294;-66
2022/07/13 01:35:33;;;;;;;4.13;3.63;;;;;204.60;224519.00;;;;5060164;28;20592;-65
2022/07/13 01:38:19;;;;;;;7.00;3.70;;;;;204.60;224519.00;;;;5064406;28;20240;-66
2022/07/13 01:41:07;;;;;;;5.07;4.00;;;;;204.60;224519.00;;;;5051856;28;20244;-66
2022/07/13 01:43:53;;;;;;;6.40;4.87;;;;;204.60;224519.00;;;;5063601;28;20309;-67
2022/07/13 01:46:40;;;;;;;5.27;4.10;;;;;204.60;224519.00;;;;5060898;28;20351;-66
2022/07/13 01:49:26;;;;;;;6.30;4.00;;;;;204.60;224519.00;;;;5057590;28;20758;-66
2022/07/13 01:52:12;;;;;;;4.37;3.93;;;;;204.60;224519.00;;;;5065734;28;20231;-65
2022/07/13 01:54:59;;;;;;;7.33;4.60;;;;;204.60;224519.00;;;;5062788;28;20318;-66
2022/07/13 01:57:47;;;;;;;4.57;3.73;;;;;204.60;224519.00;;;;5063487;28;20289;-65
2022/07/13 02:00:33;;;;;;;6.63;4.67;;;;;204.60;224519.00;;;;5057222;28;20227;-65
2022/07/13 02:03:20;;;;;;;5.73;4.87;;;;;204.60;224519.00;;;;5064605;28;20231;-65
2022/07/13 02:06:06;;;;;;;5.30;4.53;;;;;204.60;224519.00;;;;5065042;28;20232;-64
2022/07/13 02:08:53;;;;;;;4.60;3.87;;;;;204.60;224519.00;;;;5057926;28;20232;-65
2022/07/13 02:11:39;;;;;;;9.90;5.20;;;;;204.60;224519.00;;;;5056362;28;20235;-65
2022/07/13 02:14:27;;;;;;;6.77;4.90;;;;;204.60;224519.00;;;;5062400;28;20236;-65
2022/07/13 02:17:13;;;;;;;5.03;4.20;;;;;204.60;224519.00;;;;5062916;28;20260;-66
2022/07/13 02:19:59;;;;;;;6.13;4.57;;;;;204.60;224519.00;;;;5062974;28;20709;-65
2022/07/13 02:22:47;;;;;;;6.70;4.30;;;;;204.60;224519.00;;;;5056816;28;20248;-64
2022/07/13 02:25:33;;;;;;;4.90;4.10;;;;;204.60;224519.00;;;;5059088;28;20228;-67
2022/07/13 02:28:20;;;;;;;6.00;4.47;;;;;204.60;224519.00;;;;5064152;28;20227;-66
2022/07/13 02:31:07;;;;;;;5.97;4.80;;;;;204.60;224519.00;;;;5063818;28;20274;-66
2022/07/13 02:33:54;;;;;;;5.93;4.13;;;;;204.60;224519.00;;;;5061029;28;20351;-67
2022/07/13 02:36:40;;;;;;;5.10;4.20;;;;;204.60;224519.00;;;;5058248;28;20259;-64
2022/07/13 02:39:26;;;;;;;4.60;3.83;;;;;204.60;224519.00;;;;5063981;28;20223;-67
2022/07/13 02:42:12;;;;;;;5.13;3.77;;;;;204.60;224519.00;;;;5063776;28;20239;-65
2022/07/13 02:44:58;;;;;;;6.47;4.07;;;;;204.60;224519.00;;;;5064520;28;20278;-66
2022/07/13 02:47:46;;;;;;;8.03;3.87;;;;;204.60;224519.00;;;;5059480;28;20585;-66
2022/07/13 02:50:32;;;;;;;4.73;3.97;;;;;204.60;224519.00;;;;5053924;28;20318;-66
2022/07/13 02:53:19;;;;;;;5.87;4.37;;;;;204.60;224519.00;;;;5064820;28;20232;-66
2022/07/13 02:56:07;;;;;;;4.53;3.40;;;;;204.60;224519.00;;;;5061397;28;20244;-66
2022/07/13 02:58:54;;;;;;;4.13;3.50;;;;;204.60;224519.00;;;;5062323;28;20298;-66
2022/07/13 03:01:40;;;;;;;4.63;3.73;;;;;204.60;224519.00;;;;5060168;28;20231;-66
2022/07/13 03:04:28;;;;;;;4.23;3.70;;;;;204.60;224519.00;;;;5062150;28;20236;-65
2022/07/13 03:07:15;;;;;;;6.70;3.93;;;;;204.60;224519.00;;;;5064475;28;20239;-66
2022/07/13 03:10:02;;;;;;;5.87;3.70;;;;;204.60;224519.00;;;;5062622;28;20821;-66
2022/07/13 03:12:48;;;;;;;4.27;3.53;;;;;204.60;224519.00;;;;5058392;28;20235;-65
2022/07/13 03:15:34;;;;;;;5.70;3.97;;;;;204.60;224519.00;;;;5056992;28;20719;-64
2022/07/13 03:18:20;;;;;;;5.60;3.83;;;;;204.60;224519.00;;;;5061471;28;20259;-66
2022/07/13 03:21:08;;;;;;;4.57;3.90;;;;;204.60;224519.00;;;;5059123;28;20711;-66
2022/07/13 03:23:54;;;;;;;4.90;4.20;;;;;204.60;224519.00;;;;5063710;28;20298;-66
2022/07/13 03:26:41;;;;;;;4.77;3.80;;;;;204.60;224519.00;;;;5058567;28;20311;-66
2022/07/13 03:29:27;;;;;;;6.17;4.47;;;;;204.60;224519.00;;;;5057012;28;20716;-65
2022/07/13 03:32:13;;;;;;;5.80;4.37;;;;;204.60;224519.00;;;;5063990;28;20255;-64
2022/07/13 03:35:00;;;;;;;5.47;3.97;;;;;204.60;224519.00;;;;5059982;28;20240;-65
2022/07/13 03:37:47;;;;;;;5.83;4.30;;;;;204.60;224519.00;;;;5062042;28;20255;-66
2022/07/13 03:40:34;;;;;;;4.57;3.90;;;;;204.60;224519.00;;;;5057567;28;20306;-67
2022/07/13 03:43:21;;;;;;;4.40;3.87;;;;;204.60;224519.00;;;;5060561;28;20738;-67
2022/07/13 03:46:07;;;;;;;5.73;4.10;;;;;204.60;224519.00;;;;5057067;28;20305;-65
2022/07/13 03:48:53;;;;;;;5.53;4.20;;;;;204.60;224519.00;;;;5061275;28;20231;-64
2022/07/13 03:51:41;;;;;;;4.43;3.60;;;;;204.60;224519.00;;;;5059769;28;20240;-66
2022/07/13 03:54:29;;;;;;;4.57;3.80;;;;;204.60;224519.00;;;;5063063;28;20227;-67
2022/07/13 03:57:15;;;;;;;5.20;3.97;;;;;204.60;224519.00;;;;5058445;28;20303;-67
2022/07/13 04:00:01;;;;;;;4.33;3.57;;;;;204.60;224519.00;;;;5064211;28;20228;-66
2022/07/13 04:02:47;;;;;;;4.67;4.17;;;;;204.60;224519.00;;;;5060316;28;20706;-67
2022/07/13 04:05:34;;;;;;;4.63;3.87;;;;;204.60;224519.00;;;;5065868;28;20232;-67
2022/07/13 04:08:20;;;;;;;4.70;3.70;;;;;204.60;224519.00;;;;5065689;28;20251;-66
2022/07/13 04:11:07;;;;;;;4.87;3.90;;;;;204.60;224519.00;;;;5058127;28;20360;-67
2022/07/13 04:13:54;;;;;;;4.00;3.50;;;;;204.60;224519.00;;;;5063076;28;20732;-66
2022/07/13 04:16:40;;;;;;;5.57;4.10;;;;;204.60;224519.00;;;;5058686;28;20224;-67
2022/07/13 04:19:27;;;;;;;6.20;4.30;;;;;204.60;224519.00;;;;5060254;28;20862;-67
2022/07/13 04:22:13;;;;;;;4.23;3.80;;;;;204.60;224519.00;;;;5064361;28;20732;-66
2022/07/13 04:24:59;;;;;;;4.47;3.70;;;;;204.60;224519.00;;;;5059770;28;20302;-66
2022/07/13 04:27:47;;;;;;;4.67;3.80;;;;;204.60;224519.00;;;;5064313;28;20359;-66
2022/07/13 04:30:33;;;;;;;6.20;3.73;;;;;204.60;224519.00;;;;5064894;28;20220;-66
2022/07/13 04:33:20;;;;;;;4.47;3.60;;;;;204.60;224519.00;;;;5058337;28;20364;-66
2022/07/13 04:36:07;;;;;;;4.63;3.67;;;;;204.60;224519.00;;;;5063068;28;20760;-66
2022/07/13 04:38:53;;;;;;;3.90;3.50;;;;;204.60;224519.00;;;;5056087;28;20251;-65
2022/07/13 04:41:40;;;;;;;4.03;3.63;;;;;204.60;224519.00;;;;5060356;28;20223;-66
2022/07/13 04:44:28;;;;;;;4.00;3.60;;;;;204.60;224519.00;;;;5061913;28;20229;-66
2022/07/13 04:47:14;;;;;;;5.10;4.13;;;;;204.60;224519.00;;;;5063487;28;21176;-67
2022/07/13 04:50:00;;;;;;;5.67;4.20;;;;;204.60;224519.00;;;;5062368;28;20283;-66
2022/07/13 04:52:47;;;;;;;5.53;3.70;;;;;204.60;224519.00;;;;5062631;28;20784;-67
2022/07/13 04:55:34;;;;;;;6.13;3.77;;;;;204.60;224519.00;;;;5059828;28;20224;-66
2022/07/13 04:58:20;;;;;;;4.80;3.70;;;;;204.60;224519.00;;;;5054509;28;20943;-67
2022/07/13 05:01:08;;;;;;;6.37;3.80;;;;;204.60;224519.00;;;;5062219;28;20240;-66
2022/07/13 05:04:10;;;;;;;6.40;4.13;;;;;204.60;224519.00;;;;5065041;28;20232;-65
2022/07/13 05:06:56;;;;;;;4.50;3.70;;;;;204.60;224519.00;;;;5059209;28;20274;-67
2022/07/13 05:09:42;;;;;;;5.90;4.20;;;;;204.60;224519.00;;;;5056494;28;20240;-65
2022/07/13 05:12:29;;;;;;;5.60;4.23;;;;;204.60;224519.00;;;;5065511;28;20228;-66
2022/07/13 05:15:15;;;;;;;5.97;4.10;;;;;204.60;224519.00;;;;5065195;28;20278;-67
2022/07/13 05:18:03;;;;;;;4.87;3.93;;;;;204.60;224519.00;;;;5059506;28;20322;-66
2022/07/13 05:20:49;;;;;;;4.17;3.70;;;;;204.60;224519.00;;;;5064944;28;20611;-66
2022/07/13 05:23:35;;;;;;;4.97;3.63;;;;;204.60;224519.00;;;;5063759;28;20235;-66
2022/07/13 05:26:22;;;;;;;5.43;3.90;;;;;204.60;224519.00;;;;5062591;28;20232;-68
2022/07/13 05:29:08;;;;;;;4.80;3.73;;;;;204.60;224519.00;;;;5063842;28;20644;-68
2022/07/13 05:31:54;;;;;;;5.40;3.50;;;;;204.60;224519.00;;;;5054305;28;20411;-68
2022/07/13 05:34:42;;;;;;;5.10;3.80;;;;;204.60;224519.00;;;;5060310;28;20293;-67
2022/07/13 05:37:28;;;;;;;5.40;4.23;;;;;204.60;224519.00;;;;5063600;28;20300;-67
2022/07/13 05:40:15;;;;;;;7.30;4.50;;;;;204.60;224519.00;;;;5049218;28;20291;-65
2022/07/13 05:43:01;;;;;;;6.53;4.50;;;;;204.60;224519.00;;;;5056198;28;20359;-67
2022/07/13 05:45:48;;;;;;;5.57;4.30;;;;;204.60;224519.00;;;;5058927;28;20302;-67
2022/07/13 05:48:35;;;;;;;5.07;3.83;;;;;204.60;224519.00;;;;5063016;28;20387;-67
2022/07/13 05:51:23;;;;;;;5.17;4.20;;;;;204.60;224519.00;;;;5064949;28;20227;-68
2022/07/13 05:54:20;;;;;;;6.03;3.97;;;;;204.60;224519.00;;;;5055592;28;20359;-67
2022/07/13 05:57:26;;;;;;;6.90;3.70;;;;;204.60;224519.00;;;;5063319;28;20240;-67
2022/07/13 06:00:14;;;;;;;4.30;3.70;;;;;204.60;224519.00;;;;5061719;28;20723;-69
2022/07/13 06:03:00;;;;;;;5.23;4.20;;;;;204.60;224519.00;;;;5063726;28;20243;-67
2022/07/13 06:05:46;;;;;;;5.33;3.77;;;;;204.60;224519.00;;;;5061391;28;20705;-64
2022/07/13 06:08:34;;;;;;;6.30;4.00;;;;;204.60;224519.00;;;;5065994;28;20330;-67
2022/07/13 06:11:20;;;;;;;6.83;4.47;;;;;204.60;224519.00;;;;5064028;28;20228;-67
2022/07/13 06:14:06;;;;;;;4.77;3.87;;;;;204.60;224519.00;;;;5067787;28;20274;-67
2022/07/13 06:16:53;;;;;;;6.37;3.70;;;;;204.60;224519.00;;;;5058424;28;20235;-67
2022/07/13 06:19:39;;;;;;;9.37;3.97;;;;;204.60;224519.00;;;;5064511;28;20290;-65
2022/07/13 06:22:26;;;;;;;4.67;3.87;;;;;204.60;224519.00;;;;5057679;28;20289;-67
2022/07/13 06:25:13;;;;;;;4.30;3.60;;;;;204.60;224519.00;;;;5055240;28;20330;-66
2022/07/13 06:28:00;;;;;;;4.83;4.00;;;;;204.60;224519.00;;;;5059938;28;20234;-67
2022/07/13 06:30:46;;;;;;;4.23;3.60;;;;;204.60;224519.00;;;;5057509;28;20751;-68
2022/07/13 06:33:33;;;;;;;4.87;3.63;;;;;204.60;224519.00;;;;5061417;28;20787;-69
2022/07/13 06:36:19;;;;;;;4.83;4.07;;;;;204.60;224519.00;;;;5058092;28;20730;-68
2022/07/13 06:39:07;;;;;;;5.53;3.93;;;;;204.60;224519.00;;;;5059572;28;20276;-69
2022/07/13 06:41:55;;;;;;;6.10;3.70;;;;;204.60;224519.00;;;;5062948;28;20229;-68
2022/07/13 06:44:41;;;;;;;4.43;3.87;;;;;204.60;224519.00;;;;5065534;28;20226;-66
2022/07/13 06:47:27;;;;;;;6.60;3.57;;;;;204.60;224519.00;;;;5057492;28;20250;-67
2022/07/13 06:50:14;;;;;;;5.37;3.70;;;;;204.60;224519.00;;;;5060359;28;20229;-65
2022/07/13 06:53:01;;;;;;;4.33;3.60;;;;;204.60;224519.00;;;;5052867;28;20773;-67
2022/07/13 06:55:48;;;;;;;5.13;3.90;;;;;204.60;224519.00;;;;5058874;28;20281;-68
2022/07/13 06:58:35;;;;;;;7.60;3.90;;;;;204.60;224519.00;;;;5052191;28;20618;-67
2022/07/13 07:01:22;;;;;;;4.20;3.80;;;;;204.60;224519.00;;;;5061112;28;20366;-68
2022/07/13 07:04:08;;;;;;;4.67;3.50;;;;;204.60;224519.00;;;;5057165;28;20591;-68
2022/07/13 07:06:54;;;;;;;4.30;3.60;;;;;204.60;224519.00;;;;5058248;28;20354;-68
2022/07/13 07:09:41;;;;;;;5.73;4.10;;;;;204.60;224519.00;;;;5052221;28;20229;-64
2022/07/13 07:12:27;;;;;;;4.30;3.70;;;;;204.60;224519.00;;;;5056619;28;20761;-68
2022/07/13 07:15:15;;;;;;;5.40;3.83;;;;;204.60;224519.00;;;;5060408;28;20598;-67
2022/07/13 07:18:01;;;;;;;4.73;3.30;;;;;204.60;224519.00;;;;5059305;28;20949;-68
2022/07/13 07:20:54;;;;;;;5.90;2.97;;;;;204.60;224519.00;;;;5057302;28;20614;-69
2022/07/13 07:23:40;;;;;;;3.90;2.80;;;;;204.60;224519.00;;;;5064725;28;20277;-66
2022/07/13 07:26:30;;;;;;;3.13;2.57;;;;;204.60;224519.00;;;;5063594;28;20698;-68
2022/07/13 07:29:16;;;;;;;6.23;2.77;;;;;204.60;224519.00;;;;5064661;28;20333;-68
2022/07/13 07:32:05;;;;;;;4.33;2.70;;;;;204.60;224519.00;;;;5058455;28;20251;-67
2022/07/13 07:34:52;;;;;;;5.60;2.40;;;;;204.60;224519.00;;;;5063080;28;20228;-66
2022/07/13 07:37:39;;;;;;;3.77;2.30;;;;;204.60;224519.00;;;;5057471;28;20231;-69
2022/07/13 07:40:26;;;;;;;3.33;2.37;;;;;204.60;224519.00;;;;5062180;28;20239;-67
2022/07/13 07:43:12;;;;;;;2.90;2.40;;;;;204.60;224519.00;;;;5064302;28;20227;-67
2022/07/13 07:45:59;;;;;;;2.53;2.30;;;;;204.60;224519.00;;;;5055886;28;20266;-67
2022/07/13 07:48:47;;;;;;;3.70;2.40;;;;;204.60;224519.00;;;;5058819;28;20294;-69
2022/07/13 07:51:33;;;;;;;4.50;2.47;;;;;204.60;224519.00;;;;5058778;28;20221;-67
2022/07/13 07:54:40;;;;;;;7.20;2.53;;;;;204.60;224519.00;;;;5059245;28;20232;-70
2022/07/13 07:57:26;;;;;;;3.13;2.33;;;;;204.60;224519.00;;;;5052998;28;20299;-68
2022/07/13 08:00:13;;;;;;;7.87;2.90;;;;;204.60;224519.00;;;;5067995;28;20228;-67
2022/07/13 08:03:02;;;;;;;10.97;4.47;;;;;204.60;224519.00;;;;5063438;28;20240;-69
2022/07/13 08:05:52;;;;;;;6.33;2.77;;;;;204.60;224519.00;;;;5067605;28;20275;-68
2022/07/13 08:08:39;;;;;;;4.37;2.63;;;;;204.60;224519.00;;;;5067332;28;20297;-70
2022/07/13 08:11:28;;;;;;;5.13;2.83;;;;;204.60;224519.00;;;;5056732;28;20375;-69
2022/07/13 08:14:14;;;;;;;6.57;2.40;;;;;204.60;224519.00;;;;5067959;28;20236;-66
2022/07/13 08:17:01;;;;;;;4.17;2.23;;;;;204.60;224519.00;;;;5066082;28;20290;-67
2022/07/13 08:19:47;;;;;;;2.87;2.10;;;;;204.60;224519.00;;;;5056856;28;20236;-67
2022/07/13 08:22:35;;;;;;;4.20;2.50;;;;;204.60;224519.00;;;;5067128;28;20220;-66
2022/07/13 08:25:21;;;;;;;4.83;2.33;;;;;204.60;224519.00;;;;5068164;28;20737;-68
2022/07/13 08:28:07;;;;;;;6.90;2.50;;;;;204.60;224519.00;;;;5062033;28;20228;-67
2022/07/13 08:30:53;;;;;;;3.53;3.00;;;;;204.60;224519.00;;;;5059202;28;20363;-68
2022/07/13 08:39:49;;;;;;;5.43;2.43;;;;;204.60;224519.00;;;;5061941;28;20688;-69
2022/07/13 08:42:36;;;;;;;3.00;2.10;;;;;204.60;224519.00;;;;5059973;28;20233;-68
2022/07/13 08:45:24;;;;;;;4.10;2.07;;;;;204.60;224519.00;;;;5065208;28;20227;-67
2022/07/13 08:48:15;;;;;;;2.87;1.87;;;;;204.60;224519.00;;;;5059411;28;20236;-67
2022/07/13 08:51:03;;;;;;;3.47;2.10;;;;;204.60;224519.00;;;;5056279;28;20306;-69
2022/07/13 08:53:51;;;;;;;4.00;2.30;;;;;204.60;224519.00;;;;5058482;28;20229;-67
2022/07/13 08:56:40;;;;;;;3.57;2.20;;;;;204.60;224519.00;;;;5065989;28;20720;-68
2022/07/13 08:59:26;;;;;;;4.90;2.00;;;;;204.60;224519.00;;;;5058360;28;20236;-68
2022/07/13 09:02:13;;;;;;;4.00;2.43;;;;;204.60;224519.00;;;;5063085;28;20601;-69
2022/07/13 09:05:03;;;;;;;3.63;2.20;;;;;204.60;224519.00;;;;5060105;28;20228;-68
2022/07/13 09:08:02;;;;;;;3.80;2.10;;;;;204.60;224519.00;;;;5057282;28;20292;-68
2022/07/13 09:10:52;;;;;;;3.87;2.00;;;;;204.60;224519.00;;;;5056398;28;20224;-70
2022/07/13 09:13:41;;;;;;;3.50;1.90;;;;;204.60;224519.00;;;;5062286;28;20732;-69
2022/07/13 09:16:29;;;;;;;5.47;2.13;;;;;204.60;224519.00;;;;5053518;28;20244;-67
2022/07/13 09:19:16;;;;;;;3.53;2.30;;;;;204.60;224519.00;;;;5061608;28;20714;-68
2022/07/13 09:22:12;;;;;;;3.10;1.98;;;;;204.60;224519.00;;;;5056542;28;20317;-69
2022/07/13 09:24:58;;;;;;;4.53;2.08;;;;;204.60;224519.00;;;;5061504;28;20228;-68
2022/07/13 09:27:47;;;;;;;2.20;2.00;;;;;204.60;224519.00;;;;5063862;28;20223;-69
2022/07/13 09:30:36;;;;;;;3.70;2.05;;;;;204.60;224519.00;;;;5060469;28;20228;-72
2022/07/13 09:33:32;;;;;;;4.43;2.15;;;;;204.60;224519.00;;;;5054127;28;20267;-69
2022/07/13 09:36:22;;;;;;;2.13;1.88;;;;;204.60;224519.00;;;;5056302;28;20231;-68
2022/07/13 09:39:09;;;;;;;2.78;2.10;;;;;204.60;224519.00;;;;5056621;28;20227;-69
2022/07/13 09:41:55;;;;;;;2.40;1.98;;;;;204.60;224519.00;;;;5065822;28;20236;-69
2022/07/13 09:48:01;;;;;;;3.45;2.00;;;;;204.60;224519.00;;;;5055747;28;20256;-68
2022/07/13 09:50:53;;;;;;;4.20;1.77;;;;;204.60;224519.00;;;;5060315;28;20231;-68
2022/07/13 09:53:40;;;;;;;2.35;2.08;;;;;204.60;224519.00;;;;5059783;28;20651;-68
2022/07/13 09:56:29;;;;;;;2.63;2.28;;;;;204.60;224519.00;;;;5061070;28;20281;-70
2022/07/13 09:59:17;;;;;;;2.97;2.20;;;;;204.60;224519.00;;;;5060162;28;20346;-68
2022/07/13 10:02:04;;;;;;;4.75;2.17;;;;;204.60;224519.00;;;;5056188;28;20245;-69
2022/07/13 10:04:53;;;;;;;4.93;2.00;;;;;204.60;224519.00;;;;5058642;28;20235;-68
2022/07/13 10:07:41;;;;;;;2.45;2.05;;;;;204.60;224519.00;;;;5061315;28;20220;-69
2022/07/13 10:10:27;;;;;;;3.05;2.05;;;;;204.60;224519.00;;;;5056275;28;20717;-69
2022/07/13 10:13:15;;;;;;;3.58;2.10;;;;;204.60;224519.00;;;;5056243;28;20725;-68
2022/07/13 10:16:01;;;;;;;3.97;2.25;;;;;204.60;224519.00;;;;5054354;28;20233;-68
2022/07/13 10:18:48;;;;;;;4.53;1.92;;;;;204.60;224519.00;;;;5052317;28;20236;-67
2022/07/13 10:21:48;;;;;;;6.00;2.35;;;;;204.60;224519.00;;;;5059369;28;20236;-69
2022/07/13 10:24:51;;;;;;;4.03;2.00;;;;;204.60;224519.00;;;;5061964;28;20227;-68
2022/07/13 10:27:38;;;;;;;2.10;1.90;;;;;204.60;224519.00;;;;5057812;28;20248;-68
2022/07/13 10:30:24;;;;;;;4.20;2.20;;;;;204.60;224519.00;;;;5058089;28;20349;-68
2022/07/13 10:33:18;;;;;;;2.63;1.92;;;;;204.60;224519.00;;;;5056974;28;20232;-69
2022/07/13 10:36:06;;;;;;;3.80;2.00;;;;;204.60;224519.00;;;;5056401;28;20239;-67
2022/07/13 10:39:10;;;;;;;2.40;2.20;;;;;204.60;224519.00;;;;5059108;28;20325;-67
2022/07/13 10:42:02;;;;;;;3.97;2.20;;;;;204.60;224519.00;;;;5060358;28;20803;-66
2022/07/13 10:44:48;;;;;;;4.18;2.13;;;;;204.60;224519.00;;;;5056610;28;20247;-67
2022/07/13 10:47:45;;;;;;;3.60;2.03;;;;;204.60;224519.00;;;;5067070;28;20298;-69
2022/07/13 10:50:36;;;;;;;3.58;2.30;;;;;204.60;224519.00;;;;5055515;28;20232;-69
2022/07/13 10:54:02;;;;;;;2.60;2.03;;;;;204.60;224519.00;;;;5061308;28;20236;-68
2022/07/13 10:57:14;;;;;;;2.10;1.83;;;;;204.60;224519.00;;;;5057441;28;20294;-69
2022/07/13 11:00:01;;;;;;;2.90;2.05;;;;;204.60;224519.00;;;;5060369;28;20325;-69
2022/07/13 11:02:49;;;;;;;5.00;3.33;;;;;204.60;224519.00;;;;5051619;28;20305;-69
2022/07/13 11:05:36;;;;;;;5.38;3.55;;;;;204.60;224519.00;;;;5055560;28;20236;-69
2022/07/13 11:08:29;;;;;;;3.28;2.55;;;;;204.60;224519.00;;;;5062867;28;20223;-68
2022/07/13 11:11:18;;;;;;;2.75;2.45;;;;;204.60;224519.00;;;;5059052;28;20236;-69
2022/07/13 11:14:44;;;;;;;6.70;2.70;;;;;204.60;224519.00;;;;5061162;28;20342;-68
2022/07/13 11:17:31;;;;;;;3.40;2.78;;;;;204.60;224519.00;;;;5060811;28;20232;-69
2022/07/13 11:20:37;;;;;;;3.35;2.53;;;;;204.60;224519.00;;;;5063450;28;20704;-69
2022/07/13 11:26:45;;;;;;;2.67;2.35;;;;;204.60;224519.00;;;;5065060;28;20603;-69
2022/07/13 11:29:45;;;;;;;4.05;2.47;;;;;204.60;224519.00;;;;5065165;28;20247;-69
2022/07/13 11:32:31;;;;;;;4.88;2.60;;;;;204.60;224519.00;;;;5061274;28;20748;-70
2022/07/13 11:35:18;;;;;;;4.88;2.85;;;;;204.60;224519.00;;;;5064444;28;20983;-68
2022/07/13 11:38:07;;;;;;;5.00;2.60;;;;;204.60;224519.00;;;;5063168;28;20326;-69
2022/07/13 11:40:53;;;;;;;3.42;2.75;;;;;204.60;224519.00;;;;5061844;28;20398;-68
2022/07/13 11:43:46;;;;;;;3.55;2.80;;;;;204.60;224519.00;;;;5059617;28;20712;-69
2022/07/13 11:46:33;;;;;;;3.03;2.70;;;;;204.60;224519.00;;;;5064362;28;20779;-70
2022/07/13 11:49:20;;;;;;;4.35;3.15;;;;;204.60;224519.00;;;;5057926;28;20653;-67
2022/07/13 11:52:06;;;;;;;4.55;2.60;;;;;204.60;224519.00;;;;5063297;28;20235;-68
2022/07/13 11:54:57;;;;;;;3.63;2.67;;;;;204.60;224519.00;;;;5066659;28;20228;-69
2022/07/13 11:57:47;;;;;;;3.58;2.63;;;;;204.60;224519.00;;;;5067659;28;20229;-69
2022/07/13 12:00:33;;;;;;;3.60;2.83;;;;;204.60;224519.00;;;;5061045;28;20722;-68
2022/07/13 12:03:32;;;;;;;3.72;3.15;;;;;204.60;224519.00;;;;5062598;28;20236;-68
2022/07/13 12:06:19;;;;;;;3.70;3.10;;;;;204.60;224519.00;;;;5059201;28;20233;-69
2022/07/13 12:09:17;;;;;;;3.78;2.92;;;;;204.60;224519.00;;;;5063429;28;20711;-67
2022/07/13 12:12:04;;;;;;;5.70;3.22;;;;;204.60;224519.00;;;;5052439;28;20243;-69
2022/07/13 12:14:52;;;;;;;5.50;3.42;;;;;204.60;224519.00;;;;5062261;28;20302;-69
2022/07/13 12:17:43;;;;;;;4.63;3.10;;;;;204.60;224519.00;;;;5066443;28;20815;-68
2022/07/13 12:20:34;;;;;;;6.30;2.92;;;;;204.60;224519.00;;;;5065243;28;20297;-68
2022/07/13 12:23:20;;;;;;;4.18;2.95;;;;;204.60;224519.00;;;;5059618;28;20607;-68
2022/07/13 12:26:07;;;;;;;3.47;3.17;;;;;204.60;224519.00;;;;5068980;28;20264;-68
2022/07/13 12:28:54;;;;;;;3.22;2.65;;;;;204.60;224519.00;;;;5067829;28;20232;-69
2022/07/13 12:31:49;;;;;;;5.40;3.38;;;;;204.60;224519.00;;;;5064448;28;20298;-69
2022/07/13 12:34:49;;;;;;;5.38;2.92;;;;;204.60;224519.00;;;;5059791;28;20257;-68
2022/07/13 12:37:38;;;;;;;4.15;3.05;;;;;204.60;224519.00;;;;5063293;28;20320;-68
2022/07/13 12:40:37;;;;;;;3.50;3.05;;;;;204.60;224519.00;;;;5058534;28;20274;-69
2022/07/13 12:43:26;;;;;;;3.25;2.95;;;;;204.60;224519.00;;;;5061804;28;20243;-67
2022/07/13 12:46:12;;;;;;;4.82;3.20;;;;;204.60;224519.00;;;;5065187;28;20236;-68
2022/07/13 12:49:00;;;;;;;3.55;2.83;;;;;204.60;224519.00;;;;5052393;28;20267;-68
2022/07/13 12:51:51;;;;;;;3.67;3.00;;;;;204.60;224519.00;;;;5052070;28;20839;-70
2022/07/13 12:54:45;;;;;;;4.57;3.13;;;;;204.60;224519.00;;;;5067172;28;20823;-67
2022/07/13 12:57:35;;;;;;;5.82;3.10;;;;;204.60;224519.00;;;;5065839;28;20248;-68
2022/07/13 13:00:27;;;;;;;4.20;2.83;;;;;204.60;224519.00;;;;5067950;28;20817;-67
2022/07/13 13:03:13;;;;;;;4.65;3.25;;;;;204.60;224519.00;;;;5063285;28;20421;-68
2022/07/13 13:06:00;;;;;;;3.38;3.08;;;;;204.60;224519.00;;;;5067008;28;20354;-68
2022/07/13 13:08:46;;;;;;;4.13;2.88;;;;;204.60;224519.00;;;;5059275;28;20231;-67
2022/07/13 13:11:41;;;;;;;4.63;3.08;;;;;204.60;224519.00;;;;5063200;28;20237;-68
2022/07/13 13:14:27;;;;;;;5.85;3.05;;;;;204.60;224519.00;;;;5065359;28;20263;-68
2022/07/13 13:17:13;;;;;;;4.05;2.85;;;;;204.60;224519.00;;;;5064822;28;20331;-68
2022/07/13 13:20:00;;;;;;;4.50;2.60;;;;;204.60;224519.00;;;;5067315;28;20724;-68
2022/07/13 13:22:57;;;;;;;5.32;2.90;;;;;204.60;224519.00;;;;5060501;28;20313;-69
2022/07/13 13:25:44;;;;;;;3.28;2.15;;;;;204.60;224519.00;;;;5060561;28;20219;-68
2022/07/13 13:30:43;;;;;;;3.17;2.38;;;;;204.60;224519.00;;;;5054271;28;20232;-70
2022/07/13 13:31:38;;;;;;;3.45;2.58;;;;;204.60;224519.00;;;;5064591;28;20251;-68
2022/07/13 13:34:24;;;;;;;2.65;2.20;;;;;204.60;224519.00;;;;5055081;28;20733;-70
2022/07/13 13:37:11;;;;;;;5.00;2.30;;;;;204.60;224519.00;;;;5060793;28;20231;-68
2022/07/13 13:39:57;;;;;;;3.00;2.10;;;;;204.60;224519.00;;;;5059744;28;20228;-66
2022/07/13 13:42:43;;;;;;;6.43;2.85;;;;;204.60;224519.00;;;;5062701;28;20735;-68
2022/07/13 13:45:41;;;;;;;3.38;1.88;;;;;204.60;224519.00;;;;5044939;28;20290;-68
2022/07/13 13:48:27;;;;;;;2.50;1.98;;;;;204.60;224519.00;;;;5059598;28;20642;-69
2022/07/13 13:51:14;;;;;;;2.45;1.98;;;;;204.60;224519.00;;;;5039067;28;20676;-69
2022/07/13 13:54:20;;;;;;;2.63;2.17;;;;;204.60;224519.00;;;;5060138;28;20297;-69